N405ER KDAB-KLAL
Flight info
| Callsign | N405ER |
|---|---|
| Flight time | N/A |
| Altitude | VFR |
| Route | VFF |
| Aircraft | C172/L-DOV/C |
Departure
| Time | N/A |
|---|---|
| Airport | Daytona Beach International Airport (KDAB) |
Arrival
| Time | 2026-04-22 01:03 |
|---|---|
| Airport | Lakeland Linder International Airport (KLAL) |
| Time | Latitude | Longitude | Altitude | Speed | Heading |
|---|---|---|---|---|---|
| 2026-04-22 00:21 | 28.88959 | -81.44774 | 4467 ft | 113 kts | 242° |
| 2026-04-22 00:21 | 28.88602 | -81.45570 | 4466 ft | 113 kts | 242° |
| 2026-04-22 00:21 | 28.88269 | -81.46310 | 4464 ft | 113 kts | 242° |
| 2026-04-22 00:22 | 28.87908 | -81.47115 | 4463 ft | 113 kts | 242° |
| 2026-04-22 00:22 | 28.87546 | -81.47918 | 4466 ft | 113 kts | 242° |
| 2026-04-22 00:22 | 28.87188 | -81.48713 | 4461 ft | 113 kts | 242° |
| 2026-04-22 00:22 | 28.86825 | -81.49516 | 4460 ft | 113 kts | 242° |
| 2026-04-22 00:23 | 28.86459 | -81.50326 | 4457 ft | 113 kts | 242° |
| 2026-04-22 00:23 | 28.86096 | -81.51127 | 4455 ft | 114 kts | 242° |
| 2026-04-22 00:23 | 28.85726 | -81.51945 | 4455 ft | 113 kts | 242° |
| 2026-04-22 00:23 | 28.85363 | -81.52750 | 4456 ft | 113 kts | 242° |
| 2026-04-22 00:24 | 28.85016 | -81.53517 | 4457 ft | 114 kts | 242° |
| 2026-04-22 00:24 | 28.84742 | -81.54127 | 4453 ft | 114 kts | 242° |
| 2026-04-22 00:24 | 28.84467 | -81.54971 | 4450 ft | 113 kts | 257° |
| 2026-04-22 00:24 | 28.84299 | -81.55846 | 4449 ft | 112 kts | 259° |
| 2026-04-22 00:25 | 28.84144 | -81.56716 | 4460 ft | 111 kts | 259° |
| 2026-04-22 00:25 | 28.83990 | -81.57584 | 4461 ft | 112 kts | 259° |
| 2026-04-22 00:25 | 28.83835 | -81.58464 | 4459 ft | 113 kts | 260° |
| 2026-04-22 00:25 | 28.83680 | -81.59336 | 4460 ft | 112 kts | 259° |
| 2026-04-22 00:26 | 28.83524 | -81.60214 | 4462 ft | 112 kts | 260° |
| 2026-04-22 00:26 | 28.83368 | -81.61092 | 4464 ft | 112 kts | 260° |
| 2026-04-22 00:26 | 28.83213 | -81.61968 | 4464 ft | 112 kts | 260° |
| 2026-04-22 00:26 | 28.83056 | -81.62844 | 4463 ft | 111 kts | 260° |
| 2026-04-22 00:27 | 28.82902 | -81.63714 | 4458 ft | 111 kts | 260° |
| 2026-04-22 00:27 | 28.82748 | -81.64574 | 4467 ft | 110 kts | 260° |
| 2026-04-22 00:27 | 28.82593 | -81.65447 | 4464 ft | 111 kts | 259° |
| 2026-04-22 00:27 | 28.82438 | -81.66312 | 4463 ft | 112 kts | 259° |
| 2026-04-22 00:28 | 28.82284 | -81.67181 | 4462 ft | 111 kts | 259° |
| 2026-04-22 00:28 | 28.82130 | -81.68044 | 4459 ft | 111 kts | 259° |
| 2026-04-22 00:28 | 28.81894 | -81.68884 | 4463 ft | 110 kts | 233° |
| 2026-04-22 00:28 | 28.81318 | -81.69430 | 4469 ft | 108 kts | 205° |
| 2026-04-22 00:29 | 28.80657 | -81.69848 | 4467 ft | 109 kts | 202° |
| 2026-04-22 00:29 | 28.79978 | -81.70258 | 4465 ft | 109 kts | 202° |
| 2026-04-22 00:29 | 28.79309 | -81.70658 | 4461 ft | 109 kts | 202° |
| 2026-04-22 00:29 | 28.78626 | -81.71066 | 4460 ft | 109 kts | 202° |
| 2026-04-22 00:30 | 28.77952 | -81.71466 | 4459 ft | 109 kts | 202° |
| 2026-04-22 00:30 | 28.77284 | -81.71862 | 4458 ft | 108 kts | 202° |
| 2026-04-22 00:30 | 28.76612 | -81.72259 | 4463 ft | 108 kts | 201° |
| 2026-04-22 00:30 | 28.75968 | -81.72751 | 4463 ft | 110 kts | 215° |
| 2026-04-22 00:31 | 28.75300 | -81.73141 | 4466 ft | 108 kts | 197° |
| 2026-04-22 00:31 | 28.74605 | -81.73470 | 4464 ft | 108 kts | 196° |
| 2026-04-22 00:31 | 28.73897 | -81.73808 | 4465 ft | 109 kts | 197° |
| 2026-04-22 00:31 | 28.73203 | -81.74148 | 4467 ft | 109 kts | 197° |
| 2026-04-22 00:32 | 28.72498 | -81.74500 | 4464 ft | 109 kts | 198° |
| 2026-04-22 00:32 | 28.71795 | -81.74854 | 4466 ft | 110 kts | 198° |
| 2026-04-22 00:32 | 28.71096 | -81.75211 | 4460 ft | 110 kts | 198° |
| 2026-04-22 00:32 | 28.70401 | -81.75568 | 4459 ft | 110 kts | 198° |
| 2026-04-22 00:33 | 28.69702 | -81.75929 | 4460 ft | 109 kts | 198° |
| 2026-04-22 00:33 | 28.68997 | -81.76295 | 4458 ft | 110 kts | 198° |
| 2026-04-22 00:33 | 28.68298 | -81.76658 | 4454 ft | 110 kts | 199° |
| 2026-04-22 00:33 | 28.67597 | -81.77023 | 4455 ft | 109 kts | 198° |
| 2026-04-22 00:34 | 28.66899 | -81.77387 | 4454 ft | 109 kts | 199° |
| 2026-04-22 00:34 | 28.66206 | -81.77749 | 4451 ft | 109 kts | 198° |
| 2026-04-22 00:34 | 28.65504 | -81.78115 | 4448 ft | 109 kts | 199° |
| 2026-04-22 00:34 | 28.64807 | -81.78480 | 4447 ft | 110 kts | 198° |
| 2026-04-22 00:35 | 28.64115 | -81.78841 | 4443 ft | 110 kts | 198° |
| 2026-04-22 00:35 | 28.63408 | -81.79210 | 4443 ft | 110 kts | 198° |
| 2026-04-22 00:35 | 28.62717 | -81.79572 | 4442 ft | 110 kts | 199° |
| 2026-04-22 00:35 | 28.62022 | -81.79935 | 4442 ft | 109 kts | 199° |
| 2026-04-22 00:36 | 28.61326 | -81.80297 | 4446 ft | 109 kts | 199° |
| 2026-04-22 00:36 | 28.60631 | -81.80662 | 4444 ft | 109 kts | 199° |
| 2026-04-22 00:36 | 28.59931 | -81.81029 | 4443 ft | 110 kts | 199° |
| 2026-04-22 00:36 | 28.59242 | -81.81388 | 4442 ft | 110 kts | 198° |
| 2026-04-22 00:37 | 28.58539 | -81.81757 | 4442 ft | 110 kts | 198° |
| 2026-04-22 00:37 | 28.57835 | -81.82124 | 4441 ft | 109 kts | 197° |
| 2026-04-22 00:37 | 28.57120 | -81.82400 | 4439 ft | 108 kts | 188° |
| 2026-04-22 00:37 | 28.56401 | -81.82631 | 4437 ft | 108 kts | 188° |
| 2026-04-22 00:38 | 28.55666 | -81.82859 | 4435 ft | 108 kts | 188° |
| 2026-04-22 00:38 | 28.54938 | -81.83094 | 4435 ft | 108 kts | 188° |
| 2026-04-22 00:38 | 28.54219 | -81.83321 | 4436 ft | 108 kts | 188° |
| 2026-04-22 00:38 | 28.53491 | -81.83552 | 4438 ft | 107 kts | 188° |
| 2026-04-22 00:39 | 28.52761 | -81.83783 | 4440 ft | 107 kts | 188° |
| 2026-04-22 00:39 | 28.52043 | -81.84011 | 4440 ft | 107 kts | 188° |
| 2026-04-22 00:39 | 28.51316 | -81.84135 | 4442 ft | 102 kts | 169° |
| 2026-04-22 00:39 | 28.50598 | -81.84091 | 4439 ft | 102 kts | 167° |
| 2026-04-22 00:40 | 28.49880 | -81.84031 | 4438 ft | 102 kts | 166° |
| 2026-04-22 00:40 | 28.49173 | -81.83968 | 4439 ft | 102 kts | 166° |
| 2026-04-22 00:40 | 28.48454 | -81.83903 | 4440 ft | 102 kts | 166° |
| 2026-04-22 00:40 | 28.47764 | -81.83839 | 4442 ft | 102 kts | 166° |
| 2026-04-22 00:41 | 28.47061 | -81.83772 | 4442 ft | 103 kts | 165° |
| 2026-04-22 00:41 | 28.46348 | -81.83704 | 4440 ft | 103 kts | 165° |
| 2026-04-22 00:41 | 28.45626 | -81.83635 | 4440 ft | 103 kts | 165° |
| 2026-04-22 00:41 | 28.44909 | -81.83566 | 4456 ft | 101 kts | 165° |
| 2026-04-22 00:42 | 28.44206 | -81.83498 | 4482 ft | 99 kts | 165° |
| 2026-04-22 00:42 | 28.43515 | -81.83429 | 4489 ft | 100 kts | 165° |
| 2026-04-22 00:42 | 28.42813 | -81.83360 | 4493 ft | 101 kts | 165° |
| 2026-04-22 00:42 | 28.42103 | -81.83290 | 4496 ft | 101 kts | 165° |
| 2026-04-22 00:43 | 28.41398 | -81.83221 | 4500 ft | 102 kts | 165° |
| 2026-04-22 00:43 | 28.40682 | -81.83151 | 4501 ft | 102 kts | 165° |
| 2026-04-22 00:43 | 28.39977 | -81.83081 | 4503 ft | 102 kts | 165° |
| 2026-04-22 00:43 | 28.39261 | -81.83011 | 4506 ft | 102 kts | 165° |
| 2026-04-22 00:44 | 28.38532 | -81.82940 | 4508 ft | 102 kts | 165° |
| 2026-04-22 00:44 | 28.37822 | -81.82870 | 4507 ft | 103 kts | 165° |
| 2026-04-22 00:44 | 28.37371 | -81.82826 | 4507 ft | 103 kts | 165° |
| 2026-04-22 00:44 | 28.37342 | -81.82823 | 4507 ft | 103 kts | 165° |
| 2026-04-22 00:45 | 28.37304 | -81.82819 | 4507 ft | 103 kts | 165° |
| 2026-04-22 00:45 | 28.36624 | -81.82752 | 4505 ft | 103 kts | 165° |
| 2026-04-22 00:45 | 28.35909 | -81.82682 | 4504 ft | 103 kts | 165° |
| 2026-04-22 00:45 | 28.35179 | -81.82610 | 4503 ft | 103 kts | 166° |
| 2026-04-22 00:46 | 28.34464 | -81.82541 | 4502 ft | 103 kts | 166° |
| 2026-04-22 00:46 | 28.33762 | -81.82476 | 4424 ft | 102 kts | 165° |
| 2026-04-22 00:46 | 28.33009 | -81.82400 | 4220 ft | 112 kts | 166° |
| 2026-04-22 00:46 | 28.32210 | -81.82326 | 4002 ft | 116 kts | 166° |
| 2026-04-22 00:47 | 28.31412 | -81.82257 | 3778 ft | 115 kts | 166° |
| 2026-04-22 00:47 | 28.30619 | -81.82188 | 3556 ft | 113 kts | 166° |
| 2026-04-22 00:47 | 28.29839 | -81.82117 | 3334 ft | 112 kts | 165° |
| 2026-04-22 00:47 | 28.29069 | -81.82046 | 3111 ft | 111 kts | 165° |
| 2026-04-22 00:48 | 28.28315 | -81.81976 | 2885 ft | 110 kts | 164° |
| 2026-04-22 00:48 | 28.27551 | -81.81902 | 2660 ft | 109 kts | 163° |
| 2026-04-22 00:48 | 28.26798 | -81.81831 | 2440 ft | 108 kts | 163° |
| 2026-04-22 00:48 | 28.26041 | -81.81757 | 2219 ft | 110 kts | 163° |
| 2026-04-22 00:49 | 28.25286 | -81.81681 | 1992 ft | 110 kts | 162° |
| 2026-04-22 00:49 | 28.24516 | -81.81606 | 1772 ft | 110 kts | 162° |
| 2026-04-22 00:49 | 28.23751 | -81.81529 | 1547 ft | 110 kts | 162° |
| 2026-04-22 00:49 | 28.22982 | -81.81451 | 1326 ft | 111 kts | 163° |
| 2026-04-22 00:50 | 28.22233 | -81.81380 | 1216 ft | 102 kts | 163° |
| 2026-04-22 00:50 | 28.21551 | -81.81316 | 1202 ft | 95 kts | 161° |
| 2026-04-22 00:50 | 28.20880 | -81.81239 | 1210 ft | 99 kts | 161° |
| 2026-04-22 00:50 | 28.20166 | -81.81155 | 1216 ft | 103 kts | 162° |
| 2026-04-22 00:51 | 28.19451 | -81.81078 | 1215 ft | 103 kts | 162° |
| 2026-04-22 00:51 | 28.18740 | -81.81006 | 1214 ft | 103 kts | 162° |
| 2026-04-22 00:51 | 28.18024 | -81.80935 | 1218 ft | 102 kts | 163° |
| 2026-04-22 00:51 | 28.17310 | -81.80864 | 1216 ft | 101 kts | 163° |
| 2026-04-22 00:52 | 28.16595 | -81.80895 | 1209 ft | 108 kts | 183° |
| 2026-04-22 00:52 | 28.15865 | -81.81186 | 1212 ft | 110 kts | 190° |
| 2026-04-22 00:52 | 28.15145 | -81.81516 | 1213 ft | 110 kts | 190° |
| 2026-04-22 00:52 | 28.14438 | -81.81844 | 1215 ft | 111 kts | 190° |
| 2026-04-22 00:53 | 28.13715 | -81.82183 | 1210 ft | 111 kts | 191° |
| 2026-04-22 00:53 | 28.13006 | -81.82514 | 1210 ft | 110 kts | 190° |
| 2026-04-22 00:53 | 28.12294 | -81.82863 | 1209 ft | 113 kts | 198° |
| 2026-04-22 00:53 | 28.11746 | -81.83557 | 1206 ft | 121 kts | 233° |
| 2026-04-22 00:54 | 28.11367 | -81.84421 | 1210 ft | 122 kts | 239° |
| 2026-04-22 00:54 | 28.11168 | -81.84917 | 1203 ft | 122 kts | 239° |
| 2026-04-22 00:54 | 28.11156 | -81.84946 | 1201 ft | 122 kts | 239° |
| 2026-04-22 00:54 | 28.10806 | -81.85828 | 1220 ft | 122 kts | 240° |
| 2026-04-22 00:55 | 28.10455 | -81.86709 | 1228 ft | 122 kts | 240° |
| 2026-04-22 00:55 | 28.10105 | -81.87593 | 1226 ft | 122 kts | 240° |
| 2026-04-22 00:55 | 28.09401 | -81.89358 | 1225 ft | 122 kts | 240° |
| 2026-04-22 00:56 | 28.09054 | -81.90234 | 1226 ft | 122 kts | 240° |
| 2026-04-22 00:56 | 28.08710 | -81.91108 | 1230 ft | 122 kts | 240° |
| 2026-04-22 00:56 | 28.08358 | -81.91994 | 1226 ft | 120 kts | 237° |
| 2026-04-22 00:56 | 28.08229 | -81.92947 | 1191 ft | 125 kts | 264° |
| 2026-04-22 00:57 | 28.08130 | -81.93919 | 1186 ft | 124 kts | 259° |
| 2026-04-22 00:57 | 28.08038 | -81.94892 | 1191 ft | 123 kts | 262° |
| 2026-04-22 00:57 | 28.07962 | -81.95853 | 1189 ft | 123 kts | 263° |
| 2026-04-22 00:57 | 28.07889 | -81.96821 | 1204 ft | 122 kts | 262° |
| 2026-04-22 00:58 | 28.07648 | -81.97737 | 1210 ft | 120 kts | 238° |
| 2026-04-22 00:58 | 28.07238 | -81.98546 | 1217 ft | 119 kts | 229° |
| 2026-04-22 00:58 | 28.06786 | -81.99348 | 1200 ft | 120 kts | 229° |
| 2026-04-22 00:58 | 28.06334 | -82.00146 | 1193 ft | 120 kts | 230° |
| 2026-04-22 00:59 | 28.05873 | -82.00947 | 1172 ft | 122 kts | 229° |
| 2026-04-22 00:59 | 28.05380 | -82.01740 | 1123 ft | 120 kts | 215° |
| 2026-04-22 00:59 | 28.04641 | -82.01955 | 1043 ft | 109 kts | 173° |
| 2026-04-22 00:59 | 28.03921 | -82.02007 | 1089 ft | 96 kts | 169° |
| 2026-04-22 01:00 | 28.03279 | -82.02017 | 1222 ft | 91 kts | 163° |
| 2026-04-22 01:00 | 28.02587 | -82.02004 | 1225 ft | 106 kts | 173° |
| 2026-04-22 01:00 | 28.01853 | -82.02104 | 1302 ft | 105 kts | 175° |
| 2026-04-22 01:00 | 28.01145 | -82.02216 | 1406 ft | 101 kts | 174° |
| 2026-04-22 01:01 | 28.00423 | -82.02333 | 1367 ft | 107 kts | 176° |
| 2026-04-22 01:01 | 27.99997 | -82.03049 | 1213 ft | 123 kts | 263° |
| 2026-04-22 01:01 | 27.99963 | -82.03957 | 1172 ft | 112 kts | 268° |
| 2026-04-22 01:01 | 27.99894 | -82.04810 | 992 ft | 108 kts | 233° |
| 2026-04-22 01:02 | 27.99307 | -82.05132 | 819 ft | 88 kts | 185° |
| 2026-04-22 01:02 | 27.98844 | -82.05070 | 724 ft | 64 kts | 111° |
| 2026-04-22 01:02 | 27.98937 | -82.04534 | 468 ft | 73 kts | 79° |
| 2026-04-22 01:02 | 27.99000 | -82.04002 | 344 ft | 68 kts | 84° |
| 2026-04-22 01:03 | 27.99040 | -82.03485 | 242 ft | 63 kts | 90° |
| 2026-04-22 01:03 | 27.99041 | -82.02982 | 166 ft | 62 kts | 90° |
| 2026-04-22 01:03 | 27.99037 | -82.02509 | 148 ft | 58 kts | 91° |
| 2026-04-22 01:03 | 27.99037 | -82.02076 | 134 ft | 48 kts | 92° |
| 2026-04-22 01:04 | 27.99038 | -82.01765 | 132 ft | 34 kts | 89° |
| 2026-04-22 01:04 | 27.99041 | -82.01488 | 134 ft | 35 kts | 92° |
| 2026-04-22 01:04 | 27.99040 | -82.01207 | 135 ft | 35 kts | 87° |
| 2026-04-22 01:04 | 27.99040 | -82.00944 | 136 ft | 28 kts | 90° |
| 2026-04-22 01:05 | 27.99035 | -82.00778 | 137 ft | 2 kts | 108° |
| 2026-04-22 01:05 | 27.99034 | -82.00778 | 137 ft | 0 kts | 135° |
| 2026-04-22 01:05 | 27.98988 | -82.00763 | 137 ft | 13 kts | 180° |
| 2026-04-22 01:05 | 27.98851 | -82.00757 | 136 ft | 23 kts | 174° |
| 2026-04-22 01:06 | 27.98694 | -82.00747 | 136 ft | 15 kts | 176° |
| 2026-04-22 01:06 | 27.98720 | -82.00758 | 136 ft | 15 kts | 352° |
| 2026-04-22 01:06 | 27.98732 | -82.00890 | 135 ft | 22 kts | 268° |
| 2026-04-22 01:06 | 27.98730 | -82.01072 | 135 ft | 23 kts | 272° |
| 2026-04-22 01:07 | 27.98730 | -82.01238 | 134 ft | 18 kts | 269° |
| 2026-04-22 01:07 | 27.98729 | -82.01354 | 134 ft | 11 kts | 266° |
| 2026-04-22 01:07 | 27.98720 | -82.01388 | 133 ft | 0 kts | 220° |
| 2026-04-22 01:07 | 27.98701 | -82.01405 | 133 ft | 6 kts | 278° |
| 2026-04-22 01:08 | 27.98708 | -82.01411 | 133 ft | 0 kts | 333° |